Time;durP1;ratioP1;P1;durP2;ratioP2;P2;SDS_P1;SDS_P2;PMS_P1;PMS_P2;Temp;Humidity;BMP_temperature;BMP_pressure;BME280_temperature;BME280_humidity;BME280_pressure;Samples;Min_cycle;Max_cycle;Signal;HPM_P1;HPM_P2
2024/01/04 00:00:32;;;;;;;5.78;1.55;;;;;;;9.62;100.00;93397.72;5123695;27;20027;-87
2024/01/04 00:02:58;;;;;;;7.22;1.10;;;;;;;9.69;100.00;93413.06;5140516;27;20332;-88
2024/01/04 00:05:24;;;;;;;10.00;1.60;;;;;;;9.78;100.00;93423.66;5140401;27;20031;-88
2024/01/04 00:07:49;;;;;;;9.38;1.20;;;;;;;10.03;100.00;93424.31;5140893;27;20110;-89
2024/01/04 00:10:15;;;;;;;7.57;1.33;;;;;;;9.94;100.00;93437.28;5140247;27;20063;-87
2024/01/04 00:12:41;;;;;;;4.18;1.25;;;;;;;9.93;100.00;93430.50;5141518;27;20027;-86
2024/01/04 00:15:07;;;;;;;7.22;1.60;;;;;;;9.91;100.00;93437.88;5139919;27;20103;-83
2024/01/04 00:17:33;;;;;;;9.98;1.73;;;;;;;9.93;100.00;93454.06;5141311;27;20101;-88
2024/01/04 00:19:58;;;;;;;9.73;1.83;;;;;;;9.88;100.00;93438.41;5140340;27;20031;-86
2024/01/04 00:22:24;;;;;;;14.07;1.58;;;;;;;9.76;100.00;93457.97;5139841;27;20106;-86
2024/01/04 00:24:51;;;;;;;6.35;1.20;;;;;;;9.79;100.00;93446.13;5141035;27;20432;-88
2024/01/04 00:27:17;;;;;;;7.50;1.42;;;;;;;9.72;100.00;93449.09;5140263;27;20023;-88
2024/01/04 00:29:43;;;;;;;6.20;1.48;;;;;;;9.96;100.00;93447.44;5140240;27;20396;-87
2024/01/04 00:32:09;;;;;;;7.80;1.50;;;;;;;9.94;100.00;93460.84;5141284;27;20059;-88
2024/01/04 00:34:34;;;;;;;8.52;1.70;;;;;;;9.99;100.00;93449.53;5141341;27;20023;-88
2024/01/04 00:37:00;;;;;;;9.98;1.83;;;;;;;9.90;100.00;93465.84;5140914;27;20025;-88
2024/01/04 00:39:25;;;;;;;10.05;1.92;;;;;;;9.90;100.00;93454.63;5122924;27;20404;-88
2024/01/04 00:41:51;;;;;;;5.80;1.38;;;;;;;9.90;100.00;93447.53;5139837;27;20039;-88
2024/01/04 00:44:17;;;;;;;6.82;1.70;;;;;;;9.67;100.00;93443.97;5139699;27;20019;-87
2024/01/04 00:46:43;;;;;;;3.95;1.20;;;;;;;9.58;100.00;93446.44;5140831;27;20023;-87
2024/01/04 00:49:08;;;;;;;6.65;1.10;;;;;;;9.55;100.00;93443.59;5139812;27;20023;-87
2024/01/04 00:51:34;;;;;;;14.90;2.38;;;;;;;9.46;100.00;93438.22;5140469;27;20046;-88
2024/01/04 00:53:59;;;;;;;6.97;1.40;;;;;;;9.29;100.00;93454.41;5139391;27;20023;-88
2024/01/04 00:56:33;;;;;;;11.88;1.98;;;;;;;9.75;100.00;93450.38;5139428;27;20019;-88
2024/01/04 00:59:00;;;;;;;4.35;1.30;;;;;;;9.51;100.00;93456.47;5144508;27;20075;-87
2024/01/04 01:01:25;;;;;;;8.75;1.45;;;;;;;9.68;100.00;93447.34;5143140;27;20023;-85
2024/01/04 01:03:51;;;;;;;16.27;1.88;;;;;;;9.71;100.00;93434.47;5118418;28;20859;-87
2024/01/04 01:06:16;;;;;;;9.48;2.00;;;;;;;9.47;100.00;93466.72;5119925;28;20382;-89
2024/01/04 01:08:42;;;;;;;9.25;1.77;;;;;;;9.55;100.00;93454.06;5101984;28;20114;-89
2024/01/04 01:11:08;;;;;;;10.10;1.20;;;;;;;9.29;100.00;93457.78;5117025;28;20043;-89
2024/01/04 01:13:34;;;;;;;9.27;1.60;;;;;;;9.37;100.00;93461.63;5102097;28;20027;-88
2024/01/04 01:15:59;;;;;;;17.98;1.98;;;;;;;9.40;100.00;93444.59;5119006;28;20130;-87
2024/01/04 01:18:25;;;;;;;11.02;1.73;;;;;;;9.45;100.00;93460.22;5119696;28;20031;-90
2024/01/04 01:20:50;;;;;;;11.60;2.42;;;;;;;9.65;100.00;93453.94;5139495;27;20340;-87
2024/01/04 01:23:16;;;;;;;10.43;2.30;;;;;;;9.57;100.00;93454.56;5138952;27;20382;-89
2024/01/04 01:25:41;;;;;;;9.77;2.17;;;;;;;9.49;100.00;93469.03;5122072;27;20071;-88
2024/01/04 01:28:07;;;;;;;12.40;1.90;;;;;;;9.61;100.00;93432.78;5121888;27;20340;-87
2024/01/04 01:30:32;;;;;;;9.20;1.60;;;;;;;9.62;100.00;93413.41;5138691;27;20031;-84
2024/01/04 01:32:58;;;;;;;8.13;1.65;;;;;;;9.85;100.00;93457.31;5121456;27;20080;-87
2024/01/04 01:35:23;;;;;;;14.52;2.22;;;;;;;9.87;100.00;93453.34;5138996;27;20038;-86
2024/01/04 01:37:49;;;;;;;8.55;1.98;;;;;;;9.75;100.00;93460.84;5121279;27;20026;-84
2024/01/04 01:40:14;;;;;;;7.03;1.40;;;;;;;9.64;100.00;93462.84;5139278;27;20027;-88
2024/01/04 01:42:40;;;;;;;9.32;1.55;;;;;;;9.46;100.00;93482.69;5141980;27;20034;-89
2024/01/04 01:45:06;;;;;;;11.35;1.70;;;;;;;9.49;100.00;93471.66;5159262;27;20023;-89
2024/01/04 01:47:31;;;;;;;14.73;1.98;;;;;;;9.25;100.00;93482.16;5142061;27;20079;-88
2024/01/04 01:49:57;;;;;;;11.02;2.00;;;;;;;9.64;100.00;93464.66;5142389;27;20026;-86
2024/01/04 01:52:22;;;;;;;9.18;1.45;;;;;;;9.52;100.00;93470.31;5144248;27;20027;-88
2024/01/04 01:54:48;;;;;;;19.90;2.30;;;;;;;9.43;100.00;93463.09;5121243;27;20118;-87
2024/01/04 01:57:15;;;;;;;8.35;1.40;;;;;;;9.27;100.00;93466.97;5138117;27;20034;-88
2024/01/04 01:59:40;;;;;;;14.07;1.75;;;;;;;9.36;100.00;93467.91;5138250;27;20033;-90
2024/01/04 02:02:06;;;;;;;6.05;1.50;;;;;;;9.30;100.00;93466.41;5137776;27;20415;-89
2024/01/04 02:04:32;;;;;;;7.00;1.40;;;;;;;9.17;100.00;93467.88;5138164;27;20049;-88
2024/01/04 02:06:58;;;;;;;11.02;1.95;;;;;;;9.07;100.00;93481.84;5120638;27;20396;-90
2024/01/04 02:09:23;;;;;;;10.10;2.10;;;;;;;9.29;100.00;93475.31;5120814;27;20058;-86
2024/01/04 02:11:48;;;;;;;6.22;1.60;;;;;;;9.54;100.00;93470.81;5141211;27;20342;-87
2024/01/04 02:14:14;;;;;;;16.08;1.52;;;;;;;9.65;100.00;93485.31;5158318;27;20026;-88
2024/01/04 02:16:39;;;;;;;13.02;1.65;;;;;;;9.67;100.00;93472.72;5158974;27;20023;-85
2024/01/04 02:19:07;;;;;;;11.85;1.58;;;;;;;9.65;100.00;93469.63;5158312;27;20035;-88
2024/01/04 02:21:36;;;;;;;16.60;1.90;;;;;;;9.58;100.00;93471.78;5158425;27;20019;-88
2024/01/04 02:24:02;;;;;;;8.07;1.55;;;;;;;9.56;100.00;93503.47;5145764;27;20027;-86
2024/01/04 02:26:27;;;;;;;8.60;1.73;;;;;;;9.66;100.00;93496.53;5140720;27;20342;-87
2024/01/04 02:28:56;;;;;;;7.43;1.65;;;;;;;9.50;100.00;93495.97;5158360;27;20447;-87
2024/01/04 02:31:21;;;;;;;10.98;1.83;;;;;;;9.36;100.00;93506.34;5157991;27;20037;-87
2024/01/04 02:33:47;;;;;;;12.32;1.73;;;;;;;9.32;100.00;93493.03;5159394;27;20026;-88
2024/01/04 02:36:14;;;;;;;7.82;1.25;;;;;;;9.59;100.00;93507.34;5144136;27;20031;-88
2024/01/04 02:38:39;;;;;;;16.88;2.08;;;;;;;9.46;100.00;93496.50;5137940;27;20454;-88
2024/01/04 02:41:05;;;;;;;16.05;2.17;;;;;;;9.41;100.00;93507.03;5120559;27;20019;-89
2024/01/04 02:43:30;;;;;;;10.00;1.55;;;;;;;9.65;100.00;93518.53;5142215;27;20019;-88
2024/01/04 02:45:56;;;;;;;6.53;1.60;;;;;;;9.33;100.00;93510.31;5158498;27;20052;-88
2024/01/04 02:48:21;;;;;;;8.05;1.67;;;;;;;9.15;100.00;93522.25;5158235;27;20030;-89
2024/01/04 02:50:47;;;;;;;12.40;1.85;;;;;;;9.01;100.00;93522.94;5141201;27;20407;-89
2024/01/04 02:53:14;;;;;;;6.50;1.25;;;;;;;9.04;100.00;93526.81;5148369;27;20062;-88
2024/01/04 02:55:39;;;;;;;7.38;1.23;;;;;;;8.86;100.00;93518.63;5138408;27;20432;-88
2024/01/04 02:58:04;;;;;;;8.30;1.60;;;;;;;8.59;100.00;93525.13;5137012;27;20381;-88
2024/01/04 03:00:30;;;;;;;5.22;1.00;;;;;;;8.70;100.00;93536.28;5128750;27;20027;-89
2024/01/04 03:02:56;;;;;;;11.75;1.70;;;;;;;8.46;100.00;93530.97;5114473;27;20053;-88
2024/01/04 03:05:21;;;;;;;3.95;1.30;;;;;;;8.39;100.00;93527.91;5127676;27;20074;-88
2024/01/04 03:07:48;;;;;;;8.73;1.70;;;;;;;8.41;100.00;93529.19;5108199;27;20059;-88
2024/01/04 03:10:13;;;;;;;6.47;1.38;;;;;;;8.26;100.00;93532.69;5127286;27;20035;-88
2024/01/04 03:12:39;;;;;;;9.40;1.67;;;;;;;8.17;100.00;93534.31;5124758;27;20031;-89
2024/01/04 03:15:08;;;;;;;8.98;1.60;;;;;;;8.05;100.00;93538.06;5124587;27;20039;-89
2024/01/04 03:17:34;;;;;;;5.57;1.38;;;;;;;8.11;100.00;93545.84;5116347;28;20042;-88
2024/01/04 03:20:00;;;;;;;15.02;1.70;;;;;;;7.90;100.00;93546.00;5143675;27;20035;-88
2024/01/04 03:22:25;;;;;;;10.85;1.80;;;;;;;7.76;100.00;93543.19;5140705;27;20027;-88
2024/01/04 03:24:51;;;;;;;10.13;2.20;;;;;;;7.65;100.00;93542.47;5157221;27;20115;-88
2024/01/04 03:27:16;;;;;;;8.20;1.92;;;;;;;7.50;100.00;93551.13;5151925;27;20047;-88
2024/01/04 03:29:43;;;;;;;9.93;1.77;;;;;;;7.31;100.00;93537.91;5137195;28;20034;-88
2024/01/04 03:32:08;;;;;;;8.18;2.13;;;;;;;7.13;100.00;93540.06;5136601;28;20030;-88
2024/01/04 03:34:34;;;;;;;9.80;2.47;;;;;;;7.00;100.00;93544.00;5119780;28;20027;-88
2024/01/04 03:36:59;;;;;;;11.52;2.92;;;;;;;6.68;100.00;93541.72;5132942;27;20025;-89
2024/01/04 03:39:25;;;;;;;5.88;2.53;;;;;;;6.75;100.00;93544.84;5116308;28;20031;-88
2024/01/04 03:41:50;;;;;;;10.98;3.47;;;;;;;6.48;100.00;93544.09;5117883;28;20409;-88
2024/01/04 03:44:15;;;;;;;11.15;3.80;;;;;;;6.33;100.00;93557.09;5115956;28;20023;-88
2024/01/04 03:46:41;;;;;;;13.73;4.20;;;;;;;6.27;100.00;93552.94;5129875;27;20030;-89
2024/01/04 03:49:06;;;;;;;14.38;3.97;;;;;;;6.02;100.00;93560.44;5157224;27;20431;-88
2024/01/04 03:51:32;;;;;;;17.23;5.82;;;;;;;6.14;100.00;93562.81;5139844;27;20019;-88
2024/01/04 03:53:58;;;;;;;17.30;5.38;;;;;;;6.03;100.00;93556.81;5139328;27;20031;-88
2024/01/04 03:56:24;;;;;;;14.98;5.88;;;;;;;6.00;100.00;93564.31;5157663;27;20058;-88
2024/01/04 03:58:49;;;;;;;19.30;6.10;;;;;;;5.92;100.00;93570.81;5136960;27;20442;-89
2024/01/04 04:01:15;;;;;;;20.35;5.38;;;;;;;5.97;100.00;93563.00;5115862;28;20092;-88
2024/01/04 04:03:40;;;;;;;18.27;4.57;;;;;;;6.07;100.00;93562.28;5135287;27;20079;-88
2024/01/04 04:06:06;;;;;;;13.23;3.60;;;;;;;6.43;100.00;93571.91;5157662;27;20079;-88
2024/01/04 04:08:31;;;;;;;10.02;3.75;;;;;;;6.57;100.00;93567.75;5156904;27;20133;-88
2024/01/04 04:10:57;;;;;;;17.58;3.95;;;;;;;6.53;100.00;93560.72;5151559;27;20023;-88
2024/01/04 04:13:22;;;;;;;11.10;2.75;;;;;;;6.45;100.00;93569.84;5115700;28;20050;-88
2024/01/04 04:15:48;;;;;;;11.05;3.17;;;;;;;6.45;100.00;93575.03;5116960;28;20030;-88
2024/01/04 04:18:13;;;;;;;13.95;3.47;;;;;;;6.42;100.00;93584.16;5115634;28;20115;-88
2024/01/04 04:20:39;;;;;;;14.00;2.70;;;;;;;6.55;100.00;93589.91;5141464;27;20423;-89
2024/01/04 04:23:05;;;;;;;9.15;2.63;;;;;;;6.53;100.00;93595.34;5157000;27;20018;-89
2024/01/04 04:25:30;;;;;;;14.55;2.90;;;;;;;6.48;100.00;93600.56;5157036;27;20029;-88
2024/01/04 04:27:55;;;;;;;13.02;4.55;;;;;;;6.21;100.00;93607.53;5158004;27;20023;-88
2024/01/04 04:30:22;;;;;;;19.20;6.35;;;;;;;6.24;100.00;93611.47;5147943;27;20030;-88
2024/01/04 04:32:48;;;;;;;12.63;5.07;;;;;;;6.13;100.00;93631.47;5139922;27;20431;-88
2024/01/04 04:35:13;;;;;;;15.15;5.07;;;;;;;5.73;100.00;93625.84;5156944;27;20034;-88
2024/01/04 04:37:39;;;;;;;13.60;5.15;;;;;;;5.96;100.00;93631.66;5159608;27;20427;-88
2024/01/04 04:40:05;;;;;;;16.50;5.55;;;;;;;5.99;100.00;93631.13;5124034;27;20023;-89
2024/01/04 04:42:30;;;;;;;13.52;4.95;;;;;;;6.00;100.00;93631.94;5139955;27;20023;-88
2024/01/04 04:44:56;;;;;;;15.88;4.90;;;;;;;6.16;100.00;93633.56;5122739;27;20138;-89
2024/01/04 04:47:21;;;;;;;15.02;4.20;;;;;;;6.16;100.00;93633.56;5139089;27;20030;-88
2024/01/04 04:49:47;;;;;;;11.63;4.20;;;;;;;6.26;100.00;93640.59;5158651;27;20129;-88
2024/01/04 04:52:12;;;;;;;19.58;3.92;;;;;;;6.25;100.00;93646.84;5142937;27;20027;-88
2024/01/04 04:54:38;;;;;;;15.10;3.83;;;;;;;6.20;100.00;93649.44;5161549;27;20113;-88
2024/01/04 04:57:04;;;;;;;13.63;3.95;;;;;;;6.14;100.00;93651.25;5159455;27;20034;-88
2024/01/04 04:59:30;;;;;;;11.40;3.30;;;;;;;6.27;100.00;93657.75;5160650;27;20113;-88
2024/01/04 05:01:55;;;;;;;15.02;2.95;;;;;;;6.36;100.00;93663.25;5160673;27;20405;-88
2024/01/04 05:04:21;;;;;;;9.30;2.92;;;;;;;6.58;100.00;93668.22;5155846;27;20424;-88
2024/01/04 05:06:46;;;;;;;11.00;2.92;;;;;;;6.63;100.00;93667.44;5126969;27;20023;-89
2024/01/04 05:09:12;;;;;;;15.80;3.88;;;;;;;6.34;100.00;93667.94;5109779;27;20019;-88
2024/01/04 05:11:37;;;;;;;23.88;5.03;;;;;;;5.88;100.00;93671.13;5119595;27;20031;-88
2024/01/04 05:14:03;;;;;;;17.38;4.15;;;;;;;5.78;100.00;93677.88;5128251;27;20023;-88
2024/01/04 05:16:29;;;;;;;12.38;3.13;;;;;;;5.94;100.00;93677.94;5159800;27;20074;-88
2024/01/04 05:18:54;;;;;;;11.88;2.63;;;;;;;6.01;100.00;93682.91;5159774;27;20018;-88
2024/01/04 05:21:20;;;;;;;8.43;2.90;;;;;;;6.13;100.00;93672.28;5159808;27;20015;-88
2024/01/04 05:23:46;;;;;;;10.68;3.17;;;;;;;6.26;100.00;93684.81;5134515;27;20023;-88
2024/01/04 05:26:21;;;;;;;7.35;2.30;;;;;;;6.82;100.00;93695.59;5118459;28;20043;-88
2024/01/04 05:28:47;;;;;;;10.55;2.67;;;;;;;7.20;100.00;93699.50;5119442;28;20033;-88
2024/01/04 05:31:12;;;;;;;6.65;2.10;;;;;;;7.08;100.00;93707.56;5111370;27;20023;-88
2024/01/04 05:33:38;;;;;;;11.68;2.25;;;;;;;7.19;100.00;93717.97;5158952;27;20538;-88
2024/01/04 05:36:04;;;;;;;12.52;1.52;;;;;;;7.57;100.00;93730.72;5159824;27;20023;-88
2024/01/04 05:38:29;;;;;;;11.52;2.15;;;;;;;7.56;100.00;93729.94;5160576;27;20019;-87
2024/01/04 05:40:54;;;;;;;5.82;1.17;;;;;;;7.58;100.00;93724.44;5142090;27;20371;-88
2024/01/04 05:43:20;;;;;;;9.18;1.70;;;;;;;7.90;100.00;93720.75;5119143;28;20020;-88
2024/01/04 05:45:45;;;;;;;3.58;1.63;;;;;;;8.09;100.00;93720.91;5118211;28;20080;-87
2024/01/04 05:48:11;;;;;;;6.57;1.23;;;;;;;7.77;100.00;93722.88;5100428;28;20310;-88
2024/01/04 05:50:36;;;;;;;11.30;1.40;;;;;;;7.64;100.00;93732.00;5129911;27;20091;-88
2024/01/04 05:53:01;;;;;;;8.32;1.30;;;;;;;7.82;100.00;93739.53;5138284;27;20023;-88
2024/01/04 05:55:27;;;;;;;3.45;1.30;;;;;;;7.99;100.00;93734.78;5138270;27;20023;-88
2024/01/04 05:57:53;;;;;;;2.55;1.00;;;;;;;7.94;99.30;93724.38;5138001;27;20023;-88
2024/01/04 06:00:18;;;;;;;7.03;1.17;;;;;;;8.03;97.63;93722.78;5157149;27;20037;-88
2024/01/04 06:02:44;;;;;;;7.35;1.13;;;;;;;8.09;96.18;93731.34;5158756;27;20130;-88
2024/01/04 06:05:09;;;;;;;5.25;1.02;;;;;;;7.82;100.00;93742.94;5160116;27;20023;-87
2024/01/04 06:07:35;;;;;;;5.68;0.90;;;;;;;8.03;95.02;93729.81;5149202;27;20030;-88
2024/01/04 06:10:01;;;;;;;5.38;1.10;;;;;;;7.97;91.86;93739.50;5113659;27;20027;-88
2024/01/04 06:12:26;;;;;;;3.10;1.10;;;;;;;8.46;83.87;93747.63;5138264;27;20052;-87
2024/01/04 06:14:52;;;;;;;5.60;1.38;;;;;;;8.37;83.47;93752.66;5138093;27;20027;-88
2024/01/04 06:17:18;;;;;;;5.07;1.00;;;;;;;8.23;85.55;93743.81;5144385;27;20444;-88
2024/01/04 06:19:44;;;;;;;5.45;0.93;;;;;;;8.02;88.95;93751.75;5137627;27;20121;-87
2024/01/04 06:22:09;;;;;;;1.52;0.75;;;;;;;8.45;78.94;93744.25;5139105;27;20019;-88
2024/01/04 06:24:35;;;;;;;6.30;0.80;;;;;;;8.04;86.26;93752.25;5136598;27;20033;-88
2024/01/04 06:27:00;;;;;;;5.07;0.68;;;;;;;8.43;78.01;93751.59;5118283;28;20028;-87
2024/01/04 06:29:26;;;;;;;7.05;0.80;;;;;;;8.09;79.33;93741.78;5118248;28;20023;-87
2024/01/04 06:31:51;;;;;;;1.67;0.70;;;;;;;8.24;79.35;93746.19;5118278;28;20061;-88
2024/01/04 06:34:17;;;;;;;2.10;0.73;;;;;;;8.33;76.67;93739.38;5135519;27;20034;-87
2024/01/04 06:36:42;;;;;;;4.07;0.95;;;;;;;7.97;80.96;93742.09;5138588;27;20033;-88
2024/01/04 06:39:08;;;;;;;4.75;0.80;;;;;;;8.13;75.84;93745.44;5138655;27;20034;-87
2024/01/04 06:41:34;;;;;;;3.42;0.90;;;;;;;8.02;76.84;93744.69;5142373;27;20334;-88
2024/01/04 06:44:00;;;;;;;2.67;0.90;;;;;;;7.87;73.58;93752.56;5142263;27;20030;-87
2024/01/04 06:46:25;;;;;;;3.33;0.85;;;;;;;8.19;72.67;93744.38;5138636;27;20340;-88
2024/01/04 06:48:51;;;;;;;4.72;1.20;;;;;;;8.32;70.90;93755.28;5138070;27;20027;-87
2024/01/04 06:51:16;;;;;;;2.35;0.82;;;;;;;8.35;70.06;93750.31;5143843;27;20027;-89
2024/01/04 06:53:42;;;;;;;5.65;0.80;;;;;;;8.23;69.70;93744.63;5131766;27;20100;-87
2024/01/04 06:56:10;;;;;;;2.97;1.00;;;;;;;8.31;68.93;93748.50;5122728;27;20483;-88
2024/01/04 06:58:35;;;;;;;2.47;0.70;;;;;;;8.68;64.19;93746.53;5116131;28;20036;-88
2024/01/04 07:01:01;;;;;;;1.75;0.40;;;;;;;8.43;65.88;93753.41;5117150;28;20036;-88
2024/01/04 07:03:26;;;;;;;3.03;0.60;;;;;;;8.23;65.32;93759.50;5116634;28;20093;-88
2024/01/04 07:05:52;;;;;;;2.05;0.60;;;;;;;8.00;67.78;93756.44;5099623;28;20027;-88
2024/01/04 07:08:17;;;;;;;1.63;0.60;;;;;;;7.99;69.25;93766.09;5116279;28;20024;-87
2024/01/04 07:10:43;;;;;;;5.75;1.02;;;;;;;8.05;69.37;93759.81;5137167;27;20505;-88
2024/01/04 07:13:08;;;;;;;7.07;0.88;;;;;;;7.86;72.95;93779.69;5136959;27;20023;-88
2024/01/04 07:15:34;;;;;;;3.70;1.13;;;;;;;7.71;73.55;93777.91;5120062;28;20440;-88
2024/01/04 07:17:59;;;;;;;3.90;0.85;;;;;;;7.75;73.75;93787.53;5130019;27;20026;-88
2024/01/04 07:20:25;;;;;;;2.72;0.80;;;;;;;7.68;73.19;93794.06;5119901;27;20023;-88
2024/01/04 07:22:52;;;;;;;4.30;0.88;;;;;;;7.70;71.48;93790.13;5128663;27;20052;-88
2024/01/04 07:25:18;;;;;;;1.83;0.50;;;;;;;7.92;69.38;93794.28;5136850;27;20016;-87
2024/01/04 07:27:43;;;;;;;3.30;0.80;;;;;;;8.14;66.20;93793.19;5133078;27;20030;-88
2024/01/04 07:30:10;;;;;;;1.17;0.60;;;;;;;8.41;63.64;93787.63;5133332;28;20323;-87
2024/01/04 07:32:35;;;;;;;3.53;0.88;;;;;;;8.47;64.48;93794.38;5124058;28;20374;-87
2024/01/04 07:35:01;;;;;;;3.60;0.75;;;;;;;8.55;62.72;93800.91;5137926;27;20029;-87
2024/01/04 07:37:27;;;;;;;3.03;0.73;;;;;;;8.53;61.75;93815.25;5119476;28;20027;-87
2024/01/04 07:39:52;;;;;;;1.58;0.60;;;;;;;8.63;60.47;93810.81;5136692;28;20071;-89
2024/01/04 07:42:18;;;;;;;1.17;0.50;;;;;;;8.66;62.62;93816.53;5119786;28;20012;-85
2024/01/04 07:44:44;;;;;;;2.58;0.80;;;;;;;8.97;57.67;93818.97;5144007;27;20064;-85
2024/01/04 07:47:09;;;;;;;0.68;0.47;;;;;;;9.43;53.91;93794.38;5158054;27;20023;-86
2024/01/04 07:49:34;;;;;;;1.38;0.40;;;;;;;9.63;53.78;93793.44;5139898;27;20149;-86
2024/01/04 07:52:00;;;;;;;2.65;0.70;;;;;;;9.52;54.47;93776.28;5145709;27;20444;-85
2024/01/04 07:54:26;;;;;;;1.40;0.68;;;;;;;9.80;53.93;93779.16;5115802;28;20020;-86
2024/01/04 07:56:52;;;;;;;1.60;0.50;;;;;;;9.96;51.91;93785.81;5099221;28;20028;-86
2024/01/04 07:59:18;;;;;;;1.05;0.40;;;;;;;10.01;50.18;93779.75;5099029;28;20023;-86
2024/01/04 08:01:44;;;;;;;1.73;0.45;;;;;;;9.79;53.73;93780.22;5128089;28;20027;-86
2024/01/04 08:04:09;;;;;;;1.40;0.45;;;;;;;9.57;53.92;93778.81;5136270;28;20348;-86
2024/01/04 08:06:35;;;;;;;0.98;0.50;;;;;;;9.33;58.41;93780.31;5119233;28;20027;-86
2024/01/04 08:09:00;;;;;;;3.17;1.60;;;;;;;9.38;67.09;93781.34;5118866;28;20027;-86
2024/01/04 08:11:25;;;;;;;3.67;1.38;;;;;;;8.94;70.99;93785.56;5137213;27;20324;-86
2024/01/04 08:13:51;;;;;;;7.30;1.20;;;;;;;8.95;74.12;93784.50;5143794;27;20365;-86
2024/01/04 08:16:18;;;;;;;5.93;1.40;;;;;;;8.81;83.46;93790.34;5154709;27;20046;-86
2024/01/04 08:18:43;;;;;;;7.50;1.80;;;;;;;8.72;91.90;93787.50;5139981;27;20027;-86
2024/01/04 08:21:09;;;;;;;3.65;1.60;;;;;;;8.55;99.74;93780.00;5134666;27;20030;-86
2024/01/04 08:23:35;;;;;;;4.78;1.40;;;;;;;8.58;100.00;93791.75;5143640;27;20026;-86
2024/01/04 08:26:04;;;;;;;5.38;1.30;;;;;;;8.48;100.00;93782.88;5143561;27;20101;-86
2024/01/04 08:28:30;;;;;;;4.57;1.40;;;;;;;8.53;99.49;93789.94;5160391;27;20030;-86
2024/01/04 08:30:55;;;;;;;5.32;1.40;;;;;;;8.50;100.00;93795.72;5140779;27;20042;-86
2024/01/04 08:33:21;;;;;;;3.95;1.45;;;;;;;8.65;100.00;93800.06;5141222;27;20027;-86
2024/01/04 08:35:46;;;;;;;2.33;1.00;;;;;;;8.78;93.58;93806.56;5160682;27;20403;-86
2024/01/04 08:38:12;;;;;;;3.67;1.15;;;;;;;8.78;98.35;93811.78;5160237;27;20027;-86
2024/01/04 08:40:40;;;;;;;3.08;0.85;;;;;;;8.90;85.20;93814.06;5160349;27;20026;-86
2024/01/04 08:43:06;;;;;;;4.95;0.80;;;;;;;8.91;86.52;93813.81;5133256;27;20027;-85
2024/01/04 08:45:32;;;;;;;4.53;1.20;;;;;;;8.99;93.17;93816.88;5139318;27;20393;-86
2024/01/04 08:47:58;;;;;;;4.63;1.25;;;;;;;9.13;85.60;93817.84;5122277;27;20340;-86
2024/01/04 08:50:23;;;;;;;4.07;1.50;;;;;;;9.29;100.00;93817.72;5142953;27;20065;-86
2024/01/04 08:52:49;;;;;;;3.35;0.90;;;;;;;9.27;94.64;93810.19;5134466;27;20448;-86
2024/01/04 08:55:14;;;;;;;4.80;1.35;;;;;;;9.30;87.54;93811.44;5139129;27;20378;-86
2024/01/04 08:57:40;;;;;;;4.07;1.10;;;;;;;9.45;85.71;93810.56;5139049;27;20019;-86
2024/01/04 09:00:06;;;;;;;3.25;0.68;;;;;;;9.65;74.36;93801.00;5128415;27;20035;-86
2024/01/04 09:02:31;;;;;;;6.35;1.20;;;;;;;9.69;77.92;93809.88;5101485;28;20031;-86
2024/01/04 09:04:57;;;;;;;3.33;1.00;;;;;;;9.86;76.26;93819.91;5118519;28;20031;-87
2024/01/04 09:07:22;;;;;;;1.25;0.65;;;;;;;9.79;67.94;93827.31;5131370;27;20424;-86
2024/01/04 09:09:47;;;;;;;3.97;0.98;;;;;;;10.00;70.84;93838.38;5115177;28;20031;-86
2024/01/04 09:12:15;;;;;;;1.80;0.52;;;;;;;10.24;56.35;93841.03;5119494;27;20036;-86
2024/01/04 09:14:40;;;;;;;2.00;0.73;;;;;;;10.42;56.65;93838.75;5138969;27;20034;-86
2024/01/04 09:17:06;;;;;;;3.17;0.70;;;;;;;10.44;59.31;93844.50;5138753;27;20061;-86
2024/01/04 09:19:31;;;;;;;3.85;0.93;;;;;;;10.57;53.34;93849.06;5138684;27;20031;-86
2024/01/04 09:21:56;;;;;;;5.55;1.33;;;;;;;10.60;65.60;93856.38;5138789;27;20325;-86
2024/01/04 09:24:23;;;;;;;4.28;1.20;;;;;;;10.46;67.20;93866.75;5122004;27;20083;-87
2024/01/04 09:26:49;;;;;;;0.68;0.30;;;;;;;10.63;50.26;93864.75;5112855;28;20031;-87
2024/01/04 09:29:16;;;;;;;2.80;0.90;;;;;;;10.85;62.93;93872.84;5118392;28;20085;-87
2024/01/04 09:31:42;;;;;;;3.00;1.00;;;;;;;10.96;66.77;93862.25;5118261;28;20421;-87
2024/01/04 09:34:08;;;;;;;1.85;0.80;;;;;;;11.02;69.54;93867.16;5101405;28;20033;-87
2024/01/04 09:36:33;;;;;;;6.63;1.50;;;;;;;10.97;65.27;93866.44;5134134;27;20035;-87
2024/01/04 09:38:59;;;;;;;1.63;0.65;;;;;;;10.87;63.51;93875.22;5159391;27;20424;-87
2024/01/04 09:41:24;;;;;;;2.63;0.85;;;;;;;10.78;60.39;93872.44;5142416;27;20026;-87
2024/01/04 09:43:54;;;;;;;2.97;0.63;;;;;;;10.80;58.46;93880.78;5146381;27;20066;-87
2024/01/04 09:46:21;;;;;;;2.83;0.80;;;;;;;10.73;59.21;93882.94;5118282;28;20085;-86
2024/01/04 09:48:55;;;;;;;10.20;1.77;;;;;;;10.76;63.56;93874.56;5117392;28;20031;-86
2024/01/04 09:51:23;;;;;;;3.10;1.20;;;;;;;10.82;60.89;93875.25;5100600;28;20038;-86
2024/01/04 09:53:53;;;;;;;3.08;1.13;;;;;;;10.82;59.83;93878.66;5123545;27;20026;-86
2024/01/04 09:56:19;;;;;;;1.83;0.70;;;;;;;10.87;57.70;93881.22;5137067;27;20035;-86
2024/01/04 09:58:44;;;;;;;4.80;0.80;;;;;;;10.94;57.18;93885.34;5138024;27;20339;-87
2024/01/04 10:01:10;;;;;;;1.33;0.57;;;;;;;10.93;57.17;93889.81;5138148;27;20515;-86
2024/01/04 10:03:38;;;;;;;2.60;1.00;;;;;;;10.92;59.34;93882.22;5137869;27;20062;-87
2024/01/04 10:06:08;;;;;;;3.72;1.30;;;;;;;10.97;62.75;93884.78;5138312;27;20287;-87
2024/01/04 10:08:34;;;;;;;4.95;0.93;;;;;;;10.97;64.47;93892.66;5138412;27;20031;-87
2024/01/04 10:11:15;;;;;;;2.25;0.88;;;;;;;11.07;66.25;93889.13;5137970;27;20374;-86
2024/01/04 10:13:40;;;;;;;3.78;1.00;;;;;;;11.15;70.31;93891.13;5137758;27;20491;-87
2024/01/04 10:16:06;;;;;;;9.80;1.40;;;;;;;11.21;70.72;93891.84;5138076;27;20102;-86
2024/01/04 10:18:34;;;;;;;3.60;0.77;;;;;;;11.15;67.02;93891.13;5137785;27;20080;-86
2024/01/04 10:21:04;;;;;;;4.15;1.20;;;;;;;11.15;64.68;93891.88;5154329;27;20075;-87
2024/01/04 10:23:31;;;;;;;3.78;1.08;;;;;;;11.08;64.96;93888.84;5158562;27;20106;-87
2024/01/04 10:26:11;;;;;;;2.28;0.80;;;;;;;11.23;59.20;93897.56;5141441;27;20037;-86
2024/01/04 10:28:39;;;;;;;3.03;0.80;;;;;;;11.13;58.32;93894.00;5151560;27;20162;-86
2024/01/04 10:31:08;;;;;;;3.58;1.40;;;;;;;11.25;54.24;93895.44;5138580;27;20442;-86
2024/01/04 10:33:35;;;;;;;93.75;33.58;;;;;;;11.32;51.97;93888.00;5137256;27;20118;-86
2024/01/04 10:36:08;;;;;;;214.13;73.40;;;;;;;11.40;53.57;93884.75;5136973;27;20027;-86
2024/01/04 10:38:36;;;;;;;33.00;12.02;;;;;;;11.56;54.02;93892.41;5121866;27;20118;-87
2024/01/04 10:41:02;;;;;;;3.75;1.20;;;;;;;11.71;52.05;93886.91;5100481;28;20036;-86
2024/01/04 10:43:28;;;;;;;27.50;10.25;;;;;;;11.65;53.10;93890.69;5116665;28;20027;-86
2024/01/04 10:46:01;;;;;;;15.45;5.80;;;;;;;11.68;51.38;93884.09;5119935;27;20035;-86
2024/01/04 10:48:27;;;;;;;71.85;27.55;;;;;;;11.70;52.14;93885.38;5136938;27;20030;-87
2024/01/04 10:50:53;;;;;;;293.38;120.30;;;;;;;11.77;53.56;93873.75;5137554;27;20031;-86
2024/01/04 10:53:20;;;;;;;138.73;60.83;;;;;;;11.68;50.65;93863.09;5138175;27;20091;-85
2024/01/04 10:55:47;;;;;;;100.32;51.30;;;;;;;11.76;52.14;93869.53;5136930;27;20034;-86
2024/01/04 10:58:13;;;;;;;104.78;60.58;;;;;;;11.76;53.24;93857.19;5136881;27;20343;-86
2024/01/04 11:00:40;;;;;;;44.97;27.65;;;;;;;11.68;51.82;93861.25;5119592;27;20034;-86
2024/01/04 11:03:09;;;;;;;16.88;9.52;;;;;;;11.60;50.87;93864.53;5136938;27;20416;-86
2024/01/04 11:05:35;;;;;;;8.45;6.35;;;;;;;11.73;53.20;93863.78;5156706;27;20030;-86
2024/01/04 11:08:02;;;;;;;9.30;7.13;;;;;;;11.76;53.91;93845.91;5136278;27;20138;-86
2024/01/04 11:10:28;;;;;;;5.95;3.35;;;;;;;11.88;53.96;93849.66;5136548;27;20023;-86
2024/01/04 11:12:55;;;;;;;16.10;6.82;;;;;;;11.84;52.89;93843.44;5127015;27;20030;-88
2024/01/04 11:15:29;;;;;;;21.77;10.85;;;;;;;11.95;55.00;93846.66;5138076;27;20468;-88
2024/01/04 11:18:06;;;;;;;17.48;9.10;;;;;;;12.04;54.78;93841.56;5119840;27;20035;-87
2024/01/04 11:20:50;;;;;;;13.85;7.18;;;;;;;12.14;53.59;93833.50;5137869;27;20470;-87
2024/01/04 11:23:38;;;;;;;11.93;7.75;;;;;;;12.21;52.13;93824.47;5142459;27;20062;-87
2024/01/04 11:26:18;;;;;;;10.45;4.82;;;;;;;12.26;52.86;93830.41;5130945;27;20163;-87